Huvudsida
METAR-TAF:

METAR-TAF

Flygplatser :

Kokshetau Airport

Köksjetau, Kazakstan

latitud: 53-19-48N, longitud: 069-35-48E, höjd: 270 m

Aktuellt väderrapport

Denna rapport gjordes för 16 minuter sedan, klockan 08:30 UTC
Vind 14 kt från väst/nordväst
Temperatur 9°C
Fuktighet 57%
Tryck 1009 hPa
Sikt 10 km eller mer
Brutna moln på en höjd av 3500 ft

METAR: UACK 210830Z 29007MPS 9999 BKN035 09/01 Q1009 R20/290255 NOSIG RMK QFE733/0978

Tid: 14:46 (08:46 UTC)

Väderprognos

Denna rapport gjordes för 3 timmar och 46 minuter sedan, klockan 05:00 UTC
Prognos gäller från 21 kl. 06 UTC till 21 kl. 15 UTC
Vind 10 kt från väst
Sikt 10 km eller mer
Brutna moln på en höjd av 2000 ft
Brutna moln på en höjd av 10000 ft
Temporärt
från 21 kl. 06 UTC till 21 kl. 10 UTC
Sikt: 2100 m
Brutna moln på en höjd av 1100 ft, Cumulonimbus.
lätta regnskurar, fuktdis

TAF: UACK 210500Z 2106/2115 26005MPS 9999 BKN020 BKN100 TEMPO 2106/2110 2100 -SHRA BR BKN011CB

Aktuella väderrapporter och prognoser från 4000 flygplatser (METAR- och TAF-rapporter).

De tillgängliga stationerna syns som gula och röda prickar på kartan.

För musen över prickarna för att se namnen på stationerna.

Klicka sedan för att få väderrapporter och prognoser.

För att ändra kartan: Klicka på de gröna knapparna med ett svart kors på för att zooma in; den gröna knappen med ett streck på för att zooma ut; eller på de gröna pilarna för angränsande kartor.


METAR-TAF: